Time;durP1;ratioP1;P1;durP2;ratioP2;P2;SDS_P1;SDS_P2;PMS_P1;PMS_P2;Temp;Humidity;BMP_temperature;BMP_pressure;BME280_temperature;BME280_humidity;BME280_pressure;Samples;Min_cycle;Max_cycle;Signal;HPM_P1;HPM_P2
2022/03/27 00:01:18;;;;;;;27.03;18.23;;;9.40;58.30;;;;;;6197507;23;20464;-90
2022/03/27 00:03:45;;;;;;;30.90;17.77;;;9.30;58.00;;;;;;6207916;23;20457;-89
2022/03/27 00:06:11;;;;;;;29.40;18.90;;;9.40;58.10;;;;;;6209837;23;20452;-91
2022/03/27 00:08:38;;;;;;;26.53;18.93;;;9.40;58.20;;;;;;6207151;23;20408;-90
2022/03/27 00:11:25;;;;;;;30.47;18.80;;;9.30;58.40;;;;;;6199375;23;20404;-91
2022/03/27 00:13:51;;;;;;;29.57;18.17;;;9.20;58.70;;;;;;6200270;23;20457;-90
2022/03/27 00:16:18;;;;;;;29.03;19.17;;;9.10;59.00;;;;;;6204851;23;20400;-91
2022/03/27 00:18:45;;;;;;;27.03;21.23;;;9.10;59.20;;;;;;6189390;23;20406;-90
2022/03/27 00:21:13;;;;;;;28.57;18.30;;;9.00;59.30;;;;;;6187923;23;20829;-91
2022/03/27 00:23:40;;;;;;;28.43;19.43;;;8.90;59.50;;;;;;6187148;23;20905;-90
2022/03/27 00:26:08;;;;;;;29.87;19.73;;;8.90;59.70;;;;;;6186367;23;20440;-91
2022/03/27 00:28:35;;;;;;;24.80;16.60;;;8.80;60.10;;;;;;6187511;23;20410;-91
2022/03/27 00:31:05;;;;;;;27.87;18.40;;;8.80;60.40;;;;;;6187174;23;20428;-91
2022/03/27 00:33:32;;;;;;;27.10;17.70;;;8.80;60.40;;;;;;6199797;23;20414;-91
2022/03/27 00:36:00;;;;;;;23.90;16.23;;;8.80;60.30;;;;;;6213730;23;20486;-91
2022/03/27 00:38:29;;;;;;;27.80;16.90;;;8.80;60.30;;;;;;6209061;23;20943;-91
2022/03/27 00:40:56;;;;;;;27.53;17.20;;;8.70;60.60;;;;;;6201167;23;20461;-90
2022/03/27 00:43:25;;;;;;;26.20;18.37;;;8.70;61.20;;;;;;6189750;23;20406;-90
2022/03/27 00:45:52;;;;;;;25.60;17.90;;;8.60;61.50;;;;;;6191263;23;20454;-91
2022/03/27 00:48:20;;;;;;;29.53;20.10;;;8.50;61.80;;;;;;6187509;23;20410;-91
2022/03/27 00:50:48;;;;;;;24.67;17.03;;;8.50;61.90;;;;;;6187968;23;20743;-91
2022/03/27 00:53:15;;;;;;;26.53;17.57;;;8.60;61.60;;;;;;6187924;23;20941;-91
2022/03/27 00:55:44;;;;;;;30.43;18.50;;;8.60;61.20;;;;;;6199872;23;20426;-91
2022/03/27 00:58:12;;;;;;;25.70;18.03;;;8.60;61.10;;;;;;6208120;23;20386;-91
2022/03/27 01:00:50;;;;;;;26.80;17.57;;;8.50;61.40;;;;;;6207797;23;20406;-92
2022/03/27 01:03:20;;;;;;;28.03;18.10;;;8.50;61.60;;;;;;6197837;23;20838;-90
2022/03/27 01:05:49;;;;;;;29.37;18.57;;;8.50;61.80;;;;;;6192195;23;20440;-91
2022/03/27 01:08:16;;;;;;;24.60;15.87;;;8.60;62.10;;;;;;6194172;23;20432;-91
2022/03/27 01:10:43;;;;;;;26.67;17.40;;;8.50;62.10;;;;;;6207405;23;20471;-90
2022/03/27 01:13:12;;;;;;;24.60;17.27;;;8.40;62.60;;;;;;6199983;23;20493;-90
2022/03/27 01:15:43;;;;;;;28.00;17.50;;;8.30;63.00;;;;;;6188968;23;20442;-91
2022/03/27 01:18:12;;;;;;;27.90;17.67;;;8.40;63.10;;;;;;6193445;23;20391;-91
2022/03/27 01:20:42;;;;;;;29.33;18.03;;;8.30;63.40;;;;;;6189428;23;20406;-90
2022/03/27 01:23:11;;;;;;;28.93;20.30;;;8.20;63.70;;;;;;6188252;23;20429;-90
2022/03/27 01:25:39;;;;;;;28.70;18.67;;;8.20;64.00;;;;;;6187546;23;20437;-90
2022/03/27 01:28:06;;;;;;;30.03;19.10;;;8.20;64.20;;;;;;6187109;23;20409;-90
2022/03/27 01:30:33;;;;;;;26.60;17.87;;;8.10;64.10;;;;;;6186852;23;20391;-90
2022/03/27 01:33:00;;;;;;;24.70;18.20;;;8.30;64.50;;;;;;6189465;23;20406;-90
2022/03/27 01:35:27;;;;;;;29.23;19.67;;;8.30;63.90;;;;;;6188260;23;20433;-90
2022/03/27 01:37:55;;;;;;;25.07;19.40;;;8.20;63.60;;;;;;6187269;23;20391;-90
2022/03/27 01:40:22;;;;;;;29.27;19.20;;;8.20;63.70;;;;;;6188095;23;20445;-90
2022/03/27 01:42:52;;;;;;;27.63;18.37;;;8.20;63.70;;;;;;6186822;23;20444;-90
2022/03/27 01:45:19;;;;;;;28.47;18.17;;;8.10;64.00;;;;;;6186550;23;20442;-90
2022/03/27 01:47:46;;;;;;;27.10;17.77;;;8.10;64.50;;;;;;6187799;23;20461;-90
2022/03/27 01:50:13;;;;;;;25.00;18.00;;;8.00;64.80;;;;;;6188449;23;20454;-90
2022/03/27 01:52:46;;;;;;;27.10;18.03;;;7.90;65.40;;;;;;6200056;23;20397;-91
2022/03/27 01:55:16;;;;;;;27.10;16.67;;;7.90;65.70;;;;;;6211767;23;20456;-90
2022/03/27 01:57:44;;;;;;;36.23;19.00;;;7.80;66.00;;;;;;6189716;23;20401;-89
2022/03/27 02:00:14;;;;;;;34.13;19.00;;;7.70;66.60;;;;;;6196864;23;20417;-90
2022/03/27 02:02:41;;;;;;;26.40;17.33;;;7.70;67.20;;;;;;6209739;23;20456;-90
2022/03/27 02:05:08;;;;;;;28.17;18.50;;;7.70;67.60;;;;;;6211170;23;20453;-90
2022/03/27 02:07:42;;;;;;;27.87;18.27;;;7.60;67.70;;;;;;6196592;23;20390;-89
2022/03/27 02:10:10;;;;;;;23.70;18.07;;;7.50;68.20;;;;;;6209732;23;20417;-90
2022/03/27 02:12:38;;;;;;;30.77;17.87;;;7.50;68.70;;;;;;6195119;23;20402;-90
2022/03/27 02:15:06;;;;;;;24.83;18.13;;;7.40;68.70;;;;;;6188255;23;20421;-90
2022/03/27 02:17:33;;;;;;;26.57;18.70;;;7.40;68.80;;;;;;6186164;23;20409;-91
2022/03/27 02:20:00;;;;;;;23.93;17.10;;;7.40;69.20;;;;;;6185704;23;20394;-90
2022/03/27 02:22:26;;;;;;;27.67;19.83;;;7.40;69.20;;;;;;6185576;23;20507;-90
2022/03/27 02:24:53;;;;;;;30.53;18.03;;;7.40;69.00;;;;;;6185604;23;20429;-90
2022/03/27 02:27:20;;;;;;;24.60;18.57;;;7.40;69.40;;;;;;6189971;23;20406;-90
2022/03/27 02:29:48;;;;;;;29.10;17.77;;;7.30;69.60;;;;;;6206769;23;20428;-90
2022/03/27 02:32:15;;;;;;;27.60;18.87;;;7.30;69.90;;;;;;6185968;23;20493;-90
2022/03/27 02:34:42;;;;;;;26.53;16.50;;;7.40;70.10;;;;;;6185335;23;20434;-90
2022/03/27 02:37:08;;;;;;;28.10;19.70;;;7.40;69.90;;;;;;6185196;23;20410;-90
2022/03/27 02:39:35;;;;;;;28.67;20.10;;;7.40;70.00;;;;;;6187214;23;20418;-90
2022/03/27 02:42:02;;;;;;;27.17;17.90;;;7.40;70.00;;;;;;6186079;23;20461;-90
2022/03/27 02:44:29;;;;;;;22.30;17.07;;;7.40;70.00;;;;;;6188127;23;20433;-91
2022/03/27 02:46:57;;;;;;;29.73;18.20;;;7.40;70.30;;;;;;6188938;23;20412;-90
2022/03/27 02:49:24;;;;;;;21.47;17.40;;;7.30;70.50;;;;;;6189867;23;20398;-91
2022/03/27 02:51:50;;;;;;;26.07;16.73;;;7.30;70.80;;;;;;6188095;23;20410;-91
2022/03/27 02:54:17;;;;;;;28.80;17.50;;;7.30;70.90;;;;;;6187603;23;20434;-90
2022/03/27 02:56:44;;;;;;;24.87;17.77;;;7.20;71.00;;;;;;6192480;23;20412;-90
2022/03/27 02:59:11;;;;;;;27.37;17.77;;;7.20;71.40;;;;;;6192734;23;20408;-89
2022/03/27 03:01:38;;;;;;;27.90;18.30;;;7.20;71.70;;;;;;6191201;23;20445;-90
2022/03/27 03:04:06;;;;;;;31.30;18.13;;;7.20;72.40;;;;;;6191912;23;20422;-90
2022/03/27 03:06:33;;;;;;;30.07;19.47;;;7.20;71.80;;;;;;6197746;23;20414;-90
2022/03/27 03:09:00;;;;;;;23.97;17.50;;;7.10;71.60;;;;;;6206432;23;20406;-90
2022/03/27 03:11:27;;;;;;;27.17;18.87;;;7.10;71.70;;;;;;6198514;23;20417;-90
2022/03/27 03:13:54;;;;;;;26.90;19.57;;;7.10;71.90;;;;;;6198685;23;20414;-90
2022/03/27 03:16:23;;;;;;;29.63;19.00;;;7.10;72.10;;;;;;6205542;23;20398;-90
2022/03/27 03:18:49;;;;;;;29.27;18.07;;;7.00;72.10;;;;;;6186806;23;20787;-90
2022/03/27 03:21:18;;;;;;;31.60;20.63;;;6.90;72.50;;;;;;6195184;23;20543;-90
2022/03/27 03:23:45;;;;;;;33.47;18.23;;;6.90;72.70;;;;;;6192534;23;20394;-90
2022/03/27 03:26:11;;;;;;;23.57;17.23;;;6.90;72.60;;;;;;6200196;23;20449;-91
2022/03/27 03:28:38;;;;;;;29.33;18.83;;;6.90;72.90;;;;;;6212694;23;20409;-90
2022/03/27 03:31:06;;;;;;;30.00;19.57;;;6.80;73.30;;;;;;6213560;23;20473;-90
2022/03/27 03:33:32;;;;;;;31.20;19.00;;;6.80;73.50;;;;;;6190508;23;20421;-90
2022/03/27 03:35:59;;;;;;;27.27;17.50;;;6.80;73.50;;;;;;6188642;23;20799;-90
2022/03/27 03:38:27;;;;;;;36.37;17.77;;;6.80;73.60;;;;;;6189995;23;20718;-90
2022/03/27 03:40:56;;;;;;;33.10;18.93;;;6.70;73.60;;;;;;6189924;23;20410;-90
2022/03/27 03:43:23;;;;;;;33.93;19.43;;;6.70;74.00;;;;;;6191241;23;20982;-90
2022/03/27 03:45:49;;;;;;;31.30;18.70;;;6.60;74.10;;;;;;6213563;23;20425;-91
2022/03/27 03:48:16;;;;;;;26.73;18.67;;;6.60;74.50;;;;;;6199839;23;20411;-91
2022/03/27 03:50:43;;;;;;;29.90;20.60;;;6.50;75.00;;;;;;6192471;23;20917;-91
2022/03/27 03:53:09;;;;;;;24.30;17.43;;;6.60;75.30;;;;;;6189330;23;20407;-91
2022/03/27 03:55:38;;;;;;;28.60;18.00;;;6.50;75.30;;;;;;6187861;23;20429;-91
2022/03/27 03:58:05;;;;;;;29.97;18.87;;;6.50;75.50;;;;;;6188820;23;20503;-88
2022/03/27 04:00:32;;;;;;;26.53;18.73;;;6.60;75.60;;;;;;6186604;23;20397;-91
2022/03/27 04:02:59;;;;;;;27.00;18.90;;;6.50;75.50;;;;;;6186515;23;20441;-89
2022/03/27 04:05:26;;;;;;;29.00;20.27;;;6.50;75.70;;;;;;6186827;23;20434;-89
2022/03/27 04:07:53;;;;;;;26.40;19.87;;;6.50;75.80;;;;;;6195241;23;20409;-90
2022/03/27 04:10:20;;;;;;;28.67;18.67;;;6.40;76.00;;;;;;6205894;23;20488;-90
2022/03/27 04:12:48;;;;;;;26.70;18.73;;;6.40;76.30;;;;;;6192060;23;20955;-90
2022/03/27 04:15:15;;;;;;;32.10;18.50;;;6.50;76.20;;;;;;6190451;23;20439;-90
2022/03/27 04:17:45;;;;;;;24.60;17.17;;;6.50;76.30;;;;;;6196735;23;20417;-91
2022/03/27 04:20:12;;;;;;;27.43;18.07;;;6.40;76.20;;;;;;6215124;23;20397;-90
2022/03/27 04:22:39;;;;;;;28.07;19.53;;;6.40;76.50;;;;;;6214926;23;20465;-90
2022/03/27 04:25:07;;;;;;;26.43;18.73;;;6.40;76.40;;;;;;6215143;23;20444;-89
2022/03/27 04:27:33;;;;;;;27.37;18.20;;;6.40;76.60;;;;;;6214261;23;20382;-90
2022/03/27 04:30:03;;;;;;;32.17;19.77;;;6.30;76.50;;;;;;6193682;23;20412;-91
2022/03/27 04:32:29;;;;;;;28.50;18.40;;;6.30;77.00;;;;;;6215043;23;20457;-91
2022/03/27 04:34:56;;;;;;;28.07;19.20;;;6.20;77.00;;;;;;6214378;23;20414;-90
2022/03/27 04:37:23;;;;;;;30.97;19.30;;;6.20;77.10;;;;;;6214119;23;20401;-89
2022/03/27 04:39:50;;;;;;;30.80;19.57;;;6.20;77.10;;;;;;6212612;23;20410;-89
2022/03/27 04:42:17;;;;;;;25.43;18.60;;;6.20;77.30;;;;;;6205625;23;20951;-89
2022/03/27 04:44:45;;;;;;;37.57;20.97;;;6.20;77.50;;;;;;6201532;23;20421;-89
2022/03/27 04:47:13;;;;;;;26.37;18.90;;;6.20;77.60;;;;;;6214133;23;20432;-90
2022/03/27 04:49:39;;;;;;;28.27;19.90;;;6.20;77.60;;;;;;6212260;23;20401;-90
2022/03/27 04:52:06;;;;;;;23.93;18.13;;;6.20;77.60;;;;;;6204568;23;20405;-90
2022/03/27 04:54:34;;;;;;;24.17;18.70;;;6.20;77.60;;;;;;6211293;23;20436;-91
2022/03/27 04:57:01;;;;;;;28.83;18.90;;;6.10;77.60;;;;;;6209531;23;20398;-90
2022/03/27 04:59:28;;;;;;;30.33;20.17;;;6.10;77.70;;;;;;6195202;23;20424;-90
2022/03/27 05:01:54;;;;;;;30.20;20.47;;;6.00;77.90;;;;;;6191042;23;20438;-90
2022/03/27 05:04:22;;;;;;;24.73;18.93;;;5.90;78.20;;;;;;6190891;23;20444;-89
2022/03/27 05:06:49;;;;;;;25.90;19.40;;;5.80;78.90;;;;;;6190155;23;20471;-90
2022/03/27 05:09:18;;;;;;;32.00;18.60;;;5.80;79.30;;;;;;6192616;23;20736;-90
2022/03/27 05:11:44;;;;;;;32.40;20.70;;;5.80;79.90;;;;;;6188730;23;20449;-91
2022/03/27 05:14:11;;;;;;;37.50;18.50;;;5.70;80.00;;;;;;6189159;23;20397;-90
2022/03/27 05:16:38;;;;;;;26.30;18.73;;;5.70;80.40;;;;;;6189351;23;20405;-90
2022/03/27 05:19:05;;;;;;;32.70;21.97;;;5.70;80.60;;;;;;6195665;23;20411;-89
2022/03/27 05:21:33;;;;;;;30.13;20.60;;;5.60;81.00;;;;;;6198790;23;20416;-90
2022/03/27 05:24:01;;;;;;;25.03;17.20;;;5.70;81.30;;;;;;6190888;23;20444;-89
2022/03/27 05:26:28;;;;;;;28.60;17.60;;;5.80;81.00;;;;;;6190545;23;20419;-90
2022/03/27 05:28:55;;;;;;;27.43;17.27;;;5.80;80.60;;;;;;6188345;23;20749;-89
2022/03/27 05:31:22;;;;;;;29.03;18.57;;;5.90;80.20;;;;;;6187331;23;20808;-90
2022/03/27 05:33:49;;;;;;;36.10;19.03;;;5.90;79.80;;;;;;6190045;23;20412;-90
2022/03/27 05:36:16;;;;;;;30.30;18.00;;;5.90;79.80;;;;;;6197403;23;20428;-90
2022/03/27 05:38:44;;;;;;;28.57;18.90;;;5.90;79.70;;;;;;6191082;23;20759;-90
2022/03/27 05:41:11;;;;;;;28.70;19.17;;;6.00;79.50;;;;;;6189082;23;20918;-90
2022/03/27 05:43:37;;;;;;;31.10;18.87;;;5.90;79.50;;;;;;6187861;23;20429;-90
2022/03/27 05:46:04;;;;;;;26.20;19.07;;;6.00;79.70;;;;;;6188227;23;20423;-90
2022/03/27 05:48:31;;;;;;;32.73;21.20;;;6.00;79.40;;;;;;6192558;23;20413;-89
2022/03/27 05:50:58;;;;;;;24.83;18.97;;;5.90;79.30;;;;;;6190648;23;20916;-90
2022/03/27 05:53:25;;;;;;;25.40;18.67;;;5.90;79.80;;;;;;6188407;23;20405;-90
2022/03/27 05:55:53;;;;;;;34.17;18.47;;;5.90;80.00;;;;;;6187701;23;20431;-90
2022/03/27 05:58:20;;;;;;;28.33;20.23;;;5.90;80.20;;;;;;6186170;23;20405;-90
2022/03/27 06:00:46;;;;;;;28.23;17.57;;;6.00;80.10;;;;;;6186943;23;20914;-90
2022/03/27 06:03:13;;;;;;;23.87;18.07;;;6.00;80.00;;;;;;6190199;23;20443;-90
2022/03/27 06:05:40;;;;;;;27.90;20.33;;;6.10;79.80;;;;;;6209869;23;20443;-90
2022/03/27 06:08:07;;;;;;;27.97;19.23;;;6.10;79.40;;;;;;6212053;23;20391;-90
2022/03/27 06:10:35;;;;;;;35.27;19.63;;;6.10;79.10;;;;;;6208218;23;20407;-89
2022/03/27 06:13:04;;;;;;;25.57;18.47;;;6.10;79.00;;;;;;6212810;23;20409;-88
2022/03/27 06:15:33;;;;;;;30.40;18.70;;;6.10;78.50;;;;;;6196379;23;20428;-89
2022/03/27 06:18:00;;;;;;;26.77;19.13;;;6.10;78.60;;;;;;6212445;23;20408;-90
2022/03/27 06:20:29;;;;;;;29.90;19.80;;;6.20;79.30;;;;;;6206006;23;20424;-89
2022/03/27 06:22:57;;;;;;;30.93;19.47;;;6.20;79.30;;;;;;6190023;23;20439;-89
2022/03/27 06:25:26;;;;;;;32.47;20.00;;;6.20;79.10;;;;;;6186051;23;20440;-90
2022/03/27 06:27:53;;;;;;;28.10;19.70;;;6.40;79.10;;;;;;6185767;23;20406;-90
2022/03/27 06:30:29;;;;;;;24.60;19.20;;;6.40;78.40;;;;;;6186428;23;20413;-89
2022/03/27 06:32:56;;;;;;;31.50;20.53;;;6.40;78.10;;;;;;6186720;23;20393;-89
2022/03/27 06:35:24;;;;;;;33.43;19.70;;;6.50;78.30;;;;;;6186151;23;20436;-89
2022/03/27 06:37:52;;;;;;;28.93;18.30;;;6.50;78.20;;;;;;6186307;23;20392;-90
2022/03/27 06:40:20;;;;;;;28.83;19.70;;;6.50;78.00;;;;;;6186585;23;20926;-90
2022/03/27 06:42:47;;;;;;;28.73;20.23;;;6.60;78.20;;;;;;6185424;23;20486;-90
2022/03/27 06:45:16;;;;;;;31.10;20.87;;;6.70;77.80;;;;;;6189163;23;20425;-90
2022/03/27 06:47:45;;;;;;;31.20;18.83;;;6.70;77.40;;;;;;6187214;23;20378;-90
2022/03/27 06:50:13;;;;;;;34.13;20.70;;;6.70;77.30;;;;;;6188245;23;20414;-89
2022/03/27 06:52:41;;;;;;;30.00;20.83;;;6.80;77.50;;;;;;6188642;23;20405;-90
2022/03/27 06:55:09;;;;;;;28.10;19.10;;;6.80;76.90;;;;;;6187670;23;20428;-91
2022/03/27 06:57:37;;;;;;;32.63;19.70;;;6.80;77.20;;;;;;6189098;23;20413;-90
2022/03/27 07:03:03;;;;;;;30.30;20.60;;;7.10;76.10;;;;;;6186658;23;20432;-89
2022/03/27 07:05:30;;;;;;;31.20;20.40;;;7.20;75.20;;;;;;6188032;23;20556;-90
2022/03/27 07:07:57;;;;;;;26.10;19.37;;;7.30;74.90;;;;;;6191824;23;20466;-89
2022/03/27 07:10:24;;;;;;;33.23;20.30;;;7.40;74.90;;;;;;6197380;23;20394;-89
2022/03/27 07:12:51;;;;;;;33.07;20.80;;;7.50;74.60;;;;;;6208159;23;20412;-90
2022/03/27 07:15:17;;;;;;;31.80;20.90;;;7.60;73.90;;;;;;6202871;23;20461;-90
2022/03/27 07:17:46;;;;;;;34.27;21.30;;;7.70;73.60;;;;;;6203980;23;20416;-90
2022/03/27 07:20:18;;;;;;;32.47;21.60;;;7.90;72.90;;;;;;6203158;23;20401;-90
2022/03/27 07:22:45;;;;;;;30.23;20.47;;;8.00;72.50;;;;;;6211653;23;20415;-91
2022/03/27 07:25:13;;;;;;;26.40;20.63;;;8.20;72.20;;;;;;6196540;23;20434;-91
2022/03/27 07:27:41;;;;;;;29.50;20.13;;;8.40;71.40;;;;;;6188831;23;20893;-90
2022/03/27 07:30:09;;;;;;;25.27;20.97;;;8.60;70.40;;;;;;6190090;23;20464;-90
2022/03/27 07:32:37;;;;;;;29.37;20.20;;;9.10;69.30;;;;;;6191788;23;20525;-90
2022/03/27 07:35:05;;;;;;;29.00;20.37;;;10.30;65.60;;;;;;6187970;23;20488;-90
2022/03/27 07:37:34;;;;;;;31.73;22.93;;;11.30;61.50;;;;;;6188096;23;20406;-90
2022/03/27 07:40:03;;;;;;;29.77;21.90;;;12.20;58.80;;;;;;6188053;23;20394;-90
2022/03/27 07:42:30;;;;;;;30.03;23.30;;;12.40;56.80;;;;;;6201722;23;20403;-91
2022/03/27 07:44:57;;;;;;;30.60;21.07;;;12.50;56.60;;;;;;6196078;23;20422;-91
2022/03/27 07:47:24;;;;;;;30.83;21.90;;;12.80;56.40;;;;;;6189574;23;20423;-90
2022/03/27 07:49:51;;;;;;;23.60;20.27;;;13.30;55.80;;;;;;6187773;23;20414;-90
2022/03/27 07:52:18;;;;;;;27.13;22.07;;;14.10;54.60;;;;;;6183901;23;20418;-91
2022/03/27 07:54:46;;;;;;;30.27;22.83;;;14.90;52.80;;;;;;6183609;23;20441;-89
2022/03/27 07:57:13;;;;;;;25.90;20.33;;;15.10;51.80;;;;;;6196431;23;20421;-90
2022/03/27 07:59:40;;;;;;;28.80;23.20;;;15.70;51.20;;;;;;6187708;23;20423;-91
2022/03/27 08:02:07;;;;;;;25.90;21.60;;;16.20;49.70;;;;;;6186022;23;20487;-90
2022/03/27 08:04:43;;;;;;;28.57;21.00;;;16.60;49.00;;;;;;6187211;23;20821;-91
2022/03/27 08:07:10;;;;;;;25.10;21.63;;;16.60;48.20;;;;;;6188338;23;20378;-92
2022/03/27 08:09:37;;;;;;;27.40;21.30;;;16.50;48.30;;;;;;6187284;23;20390;-88
2022/03/27 08:12:07;;;;;;;27.93;22.57;;;17.00;48.10;;;;;;6193494;23;20421;-90
2022/03/27 08:14:34;;;;;;;35.27;23.47;;;17.50;47.00;;;;;;6203425;23;20445;-91
2022/03/27 08:17:01;;;;;;;26.90;22.37;;;18.00;46.10;;;;;;6192215;23;20469;-91
2022/03/27 08:19:28;;;;;;;25.53;21.43;;;18.00;45.80;;;;;;6186851;23;20460;-91
2022/03/27 08:21:55;;;;;;;24.80;20.10;;;18.20;45.50;;;;;;6204077;23;20469;-91
2022/03/27 08:24:23;;;;;;;25.67;22.93;;;18.40;44.80;;;;;;6197768;23;20452;-90
2022/03/27 08:26:56;;;;;;;28.97;21.10;;;18.40;44.70;;;;;;6196502;23;20454;-90
2022/03/27 08:29:29;;;;;;;23.33;20.00;;;18.30;44.80;;;;;;6198141;23;20409;-91
2022/03/27 08:31:56;;;;;;;28.20;22.07;;;19.10;44.40;;;;;;6210967;23;20394;-90
2022/03/27 08:34:24;;;;;;;28.13;20.87;;;19.70;43.50;;;;;;6209557;23;20407;-92
2022/03/27 08:36:54;;;;;;;24.07;21.33;;;20.80;42.30;;;;;;6211011;23;20435;-89
2022/03/27 08:39:20;;;;;;;23.30;20.33;;;21.70;40.70;;;;;;6193259;23;20484;-88
2022/03/27 08:41:49;;;;;;;24.80;20.70;;;22.60;39.50;;;;;;6188588;23;20417;-89
2022/03/27 08:44:18;;;;;;;24.67;21.77;;;23.20;38.10;;;;;;6190944;23;20788;-90
2022/03/27 08:46:48;;;;;;;23.33;21.03;;;24.40;37.60;;;;;;6189164;23;20412;-89
2022/03/27 08:49:29;;;;;;;23.83;19.27;;;24.70;35.90;;;;;;6200110;23;20396;-89
2022/03/27 08:51:58;;;;;;;29.20;21.90;;;24.80;35.10;;;;;;6194468;23;20478;-91
2022/03/27 08:54:27;;;;;;;21.53;19.30;;;25.10;35.50;;;;;;6193196;23;20429;-91
2022/03/27 08:57:04;;;;;;;24.00;21.60;;;25.50;34.40;;;;;;6195591;23;20405;-91
2022/03/27 08:59:33;;;;;;;20.97;18.90;;;25.60;34.60;;;;;;6190995;23;20436;-91
2022/03/27 09:02:02;;;;;;;21.90;19.47;;;25.60;34.60;;;;;;6210277;23;20390;-91
2022/03/27 09:04:31;;;;;;;22.10;19.90;;;25.60;34.30;;;;;;6214542;23;21505;-91
2022/03/27 09:06:58;;;;;;;21.10;18.53;;;25.80;34.10;;;;;;6213306;23;20410;-91
2022/03/27 09:09:25;;;;;;;22.40;18.50;;;26.30;33.40;;;;;;6213283;23;20460;-90
2022/03/27 09:11:56;;;;;;;21.13;18.70;;;26.90;32.70;;;;;;6212969;23;20404;-88
2022/03/27 09:14:24;;;;;;;19.07;17.07;;;28.00;32.10;;;;;;6212128;23;20426;-89
2022/03/27 09:17:03;;;;;;;20.00;18.00;;;28.80;31.00;;;;;;6206880;23;20413;-89
2022/03/27 09:19:39;;;;;;;21.27;19.13;;;29.40;29.90;;;;;;6191308;23;20398;-89
2022/03/27 09:22:14;;;;;;;19.43;17.60;;;29.70;30.00;;;;;;6189755;23;20397;-89
2022/03/27 09:24:41;;;;;;;21.60;18.00;;;30.30;28.50;;;;;;6187025;23;20455;-89
2022/03/27 09:27:08;;;;;;;21.40;18.50;;;30.90;28.60;;;;;;6185811;23;20404;-89
2022/03/27 09:30:01;;;;;;;19.40;17.50;;;31.00;27.90;;;;;;6186703;23;20410;-89
2022/03/27 09:32:30;;;;;;;19.10;17.17;;;30.70;27.60;;;;;;6164513;23;20418;-89
2022/03/27 09:35:03;;;;;;;20.50;16.67;;;30.00;27.70;;;;;;6186341;23;20422;-90
2022/03/27 09:37:32;;;;;;;19.27;17.40;;;30.40;28.10;;;;;;6185947;23;20397;-89
2022/03/27 09:39:59;;;;;;;19.23;17.13;;;28.90;28.60;;;;;;6186865;23;20394;-89
2022/03/27 09:42:26;;;;;;;18.40;16.70;;;29.50;28.90;;;;;;6186300;23;20404;-89
2022/03/27 09:45:11;;;;;;;17.87;16.17;;;30.30;28.40;;;;;;6186116;23;20757;-89
2022/03/27 09:47:39;;;;;;;18.50;16.73;;;30.80;27.60;;;;;;6190546;23;20413;-88
2022/03/27 09:50:07;;;;;;;19.90;18.00;;;30.70;27.50;;;;;;6213608;23;20421;-88
2022/03/27 09:52:34;;;;;;;18.97;16.97;;;31.10;27.60;;;;;;6214246;23;20426;-90
2022/03/27 09:55:05;;;;;;;19.40;16.70;;;31.50;27.10;;;;;;6210817;23;20434;-88
2022/03/27 09:57:33;;;;;;;18.67;16.77;;;32.20;26.70;;;;;;6212121;23;20410;-90
2022/03/27 10:00:19;;;;;;;18.23;16.50;;;33.20;26.30;;;;;;6208284;23;20539;-89
2022/03/27 10:02:48;;;;;;;19.67;17.57;;;33.00;25.90;;;;;;6196310;23;20390;-89
2022/03/27 10:05:16;;;;;;;18.33;16.57;;;33.40;25.70;;;;;;6201862;23;20462;-88
2022/03/27 10:07:45;;;;;;;17.30;15.50;;;33.20;25.20;;;;;;6199933;23;20405;-89
2022/03/27 10:10:13;;;;;;;19.17;17.37;;;33.70;25.40;;;;;;6205605;23;20412;-89
2022/03/27 10:12:42;;;;;;;18.47;16.87;;;34.50;24.90;;;;;;6209167;23;20566;-89
2022/03/27 10:15:12;;;;;;;20.73;18.83;;;35.00;24.80;;;;;;6206470;23;20428;-90
2022/03/27 10:17:40;;;;;;;18.80;17.13;;;34.90;24.30;;;;;;6199278;23;20406;-89
2022/03/27 10:20:10;;;;;;;19.87;17.77;;;35.20;24.50;;;;;;6190330;23;20405;-89
2022/03/27 10:22:40;;;;;;;19.03;17.30;;;35.50;23.90;;;;;;6192364;23;20414;-89
2022/03/27 10:25:09;;;;;;;21.50;18.77;;;35.40;24.10;;;;;;6190033;23;21118;-89
2022/03/27 10:27:37;;;;;;;18.57;15.97;;;35.30;24.20;;;;;;6188249;23;20420;-89
2022/03/27 10:30:05;;;;;;;25.87;19.50;;;35.10;24.10;;;;;;6187252;23;20437;-89
2022/03/27 10:32:34;;;;;;;19.23;17.20;;;35.40;24.10;;;;;;6187448;23;20409;-89
2022/03/27 10:35:33;;;;;;;18.03;16.33;;;35.70;23.90;;;;;;6204114;23;20457;-89
2022/03/27 10:38:10;;;;;;;20.13;18.03;;;35.80;23.80;;;;;;6194068;23;20418;-89
2022/03/27 10:40:46;;;;;;;19.27;17.20;;;36.60;23.50;;;;;;6189335;23;20410;-89
2022/03/27 10:43:20;;;;;;;20.13;18.13;;;36.10;23.30;;;;;;6186729;23;20397;-90
2022/03/27 10:46:14;;;;;;;18.40;16.70;;;35.50;23.70;;;;;;6186189;23;20775;-89
2022/03/27 10:48:42;;;;;;;19.93;17.80;;;36.10;23.50;;;;;;6187131;23;20888;-90
2022/03/27 10:51:12;;;;;;;19.23;17.50;;;36.70;23.50;;;;;;6186372;23;20738;-88
2022/03/27 10:53:39;;;;;;;19.10;16.97;;;36.60;23.10;;;;;;6185487;23;20413;-89
2022/03/27 10:56:06;;;;;;;19.70;17.87;;;34.50;23.30;;;;;;6184758;23;20425;-89
2022/03/27 10:58:38;;;;;;;18.93;17.33;;;33.60;24.70;;;;;;6185499;23;20466;-90
2022/03/27 11:01:08;;;;;;;18.03;16.20;;;34.40;24.90;;;;;;6188963;23;20517;-89
2022/03/27 11:04:04;;;;;;;19.00;16.43;;;33.80;24.10;;;;;;6187648;23;20413;-89
2022/03/27 11:06:33;;;;;;;19.13;17.03;;;32.40;24.30;;;;;;6209582;23;20397;-89
2022/03/27 11:09:02;;;;;;;17.53;15.80;;;31.70;25.60;;;;;;6208574;23;20402;-89
2022/03/27 11:11:56;;;;;;;19.37;16.23;;;31.80;25.80;;;;;;6188291;23;20402;-89
2022/03/27 11:14:46;;;;;;;17.20;15.57;;;33.10;24.50;;;;;;6190961;23;20426;-88
2022/03/27 11:17:14;;;;;;;17.83;14.60;;;33.00;24.30;;;;;;6191530;23;20808;-89
2022/03/27 11:19:44;;;;;;;16.00;14.40;;;33.80;23.70;;;;;;6190146;23;20473;-88
2022/03/27 11:22:44;;;;;;;15.70;14.07;;;32.70;24.00;;;;;;6190267;23;20409;-89
2022/03/27 11:28:06;;;;;;;14.87;13.37;;;32.40;23.70;;;;;;6237553;23;20409;-86
2022/03/27 11:30:35;;;;;;;15.30;13.80;;;32.20;23.50;;;;;;6241988;23;20408;-86
2022/03/27 11:33:23;;;;;;;18.70;14.20;;;32.70;23.20;;;;;;6228573;23;20397;-87
2022/03/27 11:36:33;;;;;;;16.17;14.10;;;33.80;22.20;;;;;;6225124;23;20486;-86
2022/03/27 11:39:41;;;;;;;14.90;12.97;;;32.30;22.70;;;;;;6225739;23;20373;-87
2022/03/27 11:42:36;;;;;;;13.80;11.70;;;33.10;22.70;;;;;;6211162;23;20435;-87
2022/03/27 11:45:42;;;;;;;13.47;12.07;;;33.40;21.20;;;;;;6217583;23;20456;-86
2022/03/27 11:48:16;;;;;;;13.17;11.83;;;33.70;20.50;;;;;;6216166;23;20416;-86
2022/03/27 11:50:46;;;;;;;14.67;13.27;;;34.70;21.20;;;;;;6218867;23;20391;-87
2022/03/27 11:53:32;;;;;;;14.00;12.60;;;34.60;20.90;;;;;;6237895;23;20388;-86
2022/03/27 11:59:18;;;;;;;14.37;11.53;;;34.20;20.90;;;;;;6220741;23;20405;-87
2022/03/27 12:02:24;;;;;;;15.10;13.00;;;34.90;20.50;;;;;;6238397;23;20400;-87
2022/03/27 12:05:07;;;;;;;17.70;12.30;;;34.60;21.20;;;;;;6118651;23;20443;-86
2022/03/27 12:08:21;;;;;;;10.83;9.60;;;33.20;20.00;;;;;;6152116;23;20480;-86
2022/03/27 12:14:16;;;;;;;16.90;12.60;;;32.70;20.90;;;;;;6228382;23;20401;-87
2022/03/27 12:17:12;;;;;;;15.03;11.33;;;33.70;20.10;;;;;;6244172;23;20413;-87
2022/03/27 12:20:02;;;;;;;15.63;12.20;;;33.40;20.30;;;;;;6214637;23;20405;-87
2022/03/27 12:22:49;;;;;;;13.30;12.00;;;32.40;21.00;;;;;;6233611;23;20412;-86
2022/03/27 12:25:31;;;;;;;13.00;11.70;;;34.10;20.40;;;;;;6226999;23;20459;-86
2022/03/27 12:30:54;;;;;;;12.30;11.03;;;35.50;19.90;;;;;;6217820;23;20380;-87
2022/03/27 12:33:37;;;;;;;12.80;11.50;;;36.10;19.50;;;;;;6217297;23;20389;-87
2022/03/27 12:37:08;;;;;;;;;;;;;;;;;;;;;
2022/03/27 12:40:13;;;;;;;12.97;11.60;;;34.50;18.80;;;;;;6201169;23;20448;-87
2022/03/27 12:43:37;;;;;;;13.27;11.87;;;34.70;19.50;;;;;;6239036;23;20400;-86
2022/03/27 12:46:50;;;;;;;13.80;11.73;;;35.50;19.00;;;;;;6238764;23;20452;-86
2022/03/27 12:59:33;;;;;;;13.83;12.03;;;36.60;18.40;;;;;;6198689;23;20420;-88
2022/03/27 13:02:47;;;;;;;12.47;11.27;;;36.40;18.80;;;;;;6214569;23;20412;-88
2022/03/27 13:09:34;;;;;;;16.43;11.07;;;37.00;18.60;;;;;;6125651;23;20500;-87
2022/03/27 13:15:54;;;;;;;17.37;13.37;;;36.30;17.90;;;;;;6046741;23;20415;-86
2022/03/27 13:22:13;;;;;;;14.03;11.07;;;36.10;18.10;;;;;;6126094;23;20820;-86
2022/03/27 13:25:08;;;;;;;12.03;10.80;;;35.20;18.10;;;;;;6212934;23;20474;-87
2022/03/27 13:28:34;;;;;;;12.70;11.40;;;34.50;19.10;;;;;;6218723;23;20451;-86
2022/03/27 13:31:45;;;;;;;13.63;11.87;;;34.30;19.10;;;;;;6215904;23;20407;-87